WetterOnline ( https://www.wetteronline.de )

Wetter aktuell Torgau

Aktuelles Wetter: Oschatz (152m)

6-stündlich | Neueste Meldungen
Ortszeit Temperatur Wetter
Do, 29.09. 8:00 5.8° C bedeckt
Do, 29.09. 2:00 5.8° C wolkenlos
Mi, 28.09. 20:00 7.4° C wolkig
Mi, 28.09. 14:00 9.4° C Sprühregen
Mi, 28.09. 8:00 6.3° C bedeckt
Mi, 28.09. 2:00 8.0° C bewölkt
Di, 27.09. 20:00 9.7° C bedeckt
Di, 27.09. 14:00 10.8° C leichter Regen
Ortszeit Temperatur Wetter
Do, 29.09. 10:30 10.5° C wolkenlos
Do, 29.09. 10:20 10.5° C wolkenlos
Do, 29.09. 10:10 10.3° C fast wolkenlos
Do, 29.09. 10:00 9.7° C leicht bewölkt
Do, 29.09. 9:50 9.7° C leicht bewölkt
Do, 29.09. 9:40 9.4° C bewölkt
Do, 29.09. 9:30 8.6° C wolkig
Do, 29.09. 9:00 7.7° C wolkenlos
Do, 29.09. 8:30 6.6° C wolkig
Do, 29.09. 8:00 5.8° C bedeckt
Do, 29.09. 7:30 5.7° C bedeckt
Ortszeit Relative Feuchte Sichtweite
Do, 29.09. 8:00 93% 26 km
Do, 29.09. 2:00 93% 40 km
Mi, 28.09. 20:00 93% 40 km
Mi, 28.09. 14:00 80% >70 km
Mi, 28.09. 8:00 93% 50 km
Mi, 28.09. 2:00 88% >70 km
Di, 27.09. 20:00 81% >70 km
Di, 27.09. 14:00 89% 55 km
Ortszeit Relative Feuchte Sichtweite
Do, 29.09. 10:30 75% 45 km
Do, 29.09. 10:20 75% -
Do, 29.09. 10:10 76% -
Do, 29.09. 10:00 79% 45 km
Do, 29.09. 9:50 79% -
Do, 29.09. 9:40 78% -
Do, 29.09. 9:30 80% 35 km
Do, 29.09. 9:00 82% 30 km
Do, 29.09. 8:30 88% 30 km
Do, 29.09. 8:00 93% 26 km
Do, 29.09. 7:30 93% 29 km
Ortszeit Niederschlagsmenge Niederschlagsart
Do, 29.09. 8:00 0.1 l/m2 in 12 Std. -
Do, 29.09. 2:00 0.1 l/m2 in 6 Std. Regen
Mi, 28.09. 20:00 0.0 l/m2 in 3 Std. Sprühregen
Mi, 28.09. 14:00 0.0 l/m2 in 6 Std. Regen
Mi, 28.09. 8:00 0.5 l/m2 in 12 Std. -
Mi, 28.09. 2:00 0.5 l/m2 in 6 Std. Regen
Di, 27.09. 20:00 2 l/m2 in 12 Std. Regen
Di, 27.09. 14:00 1 l/m2 in 6 Std. Regen
Ortszeit Niederschlagsmenge Niederschlagsart
Do, 29.09. 10:30 0.0 l/m2 in 1 Std. -
Do, 29.09. 10:20 keine Meldung -
Do, 29.09. 10:10 keine Meldung -
Do, 29.09. 10:00 0.0 l/m2 in 1 Std. -
Do, 29.09. 9:50 keine Meldung -
Do, 29.09. 9:40 keine Meldung -
Do, 29.09. 9:30 0.0 l/m2 in 1 Std. -
Do, 29.09. 9:00 0.0 l/m2 in 1 Std. -
Do, 29.09. 8:30 0.0 l/m2 in 1 Std. -
Do, 29.09. 8:00 0.0 l/m2 in 1 Std. -
Do, 29.09. 7:30 0.0 l/m2 in 1 Std. -
Ortszeit Stärke Spitze Richtung
km/h Bft. km/h Grad Sektor
Do, 29.09. 8:00 4 1 11 200° S
Do, 29.09. 2:00 7 2 18 210° SW
Mi, 28.09. 20:00 4 1 29 230° SW
Mi, 28.09. 14:00 6 1 15 230° SW
Mi, 28.09. 8:00 4 1 22 140° SO
Mi, 28.09. 2:00 9 2 31 220° SW
Di, 27.09. 20:00 14 3 54 230° SW
Di, 27.09. 14:00 14 3 43 260° W
Ortszeit Stärke Spitze Richtung
km/h Bft. km/h Grad Sektor
Do, 29.09. 10:30 7 2 18 230° SW
Do, 29.09. 10:20 7 2 - 230° SW
Do, 29.09. 10:10 9 2 - 250° W
Do, 29.09. 10:00 7 2 14 230° SW
Do, 29.09. 9:50 7 2 - 230° SW
Do, 29.09. 9:40 7 2 - 230° SW
Do, 29.09. 9:30 7 2 14 220° SW
Do, 29.09. 9:00 4 1 7 210° SW
Do, 29.09. 8:30 4 1 7 200° S
Do, 29.09. 8:00 4 1 11 200° S
Do, 29.09. 7:30 7 2 11 190° S
Ortszeit Untergrenze Bedeckung Gattung
total tief tief mittel hoch
Do, 29.09. 8:00 1800 m 8/8 8/8 - - -
Do, 29.09. 2:00 - 0/8 0/8 - - -
Mi, 28.09. 20:00 1800 m 6/8 6/8 - - -
Mi, 28.09. 14:00 540 m 8/8 8/8 - - -
Mi, 28.09. 8:00 3900 m 8/8 8/8 - - -
Mi, 28.09. 2:00 1050 m 8/8 7/8 - - -
Di, 27.09. 20:00 5100 m 8/8 8/8 - - -
Di, 27.09. 14:00 630 m 8/8 8/8 - - -
Ortszeit Bedeckungsgrad in Achtel und Wolkenuntergrenze
Do, 29.09. 10:30 keine Wolken
Do, 29.09. 10:20 keine Wolken
Do, 29.09. 10:10 1
Do, 29.09. 10:00 3(1500m) 4(9000m) 5(9000m)
Do, 29.09. 9:50 3(1500m) 4(9000m) 5(9000m)
Do, 29.09. 9:40 7
Do, 29.09. 9:30 2(9000m) 7(9000m)
Do, 29.09. 9:00 keine Wolken
Do, 29.09. 8:30 5(1800m)
Do, 29.09. 8:00 8(1800m)
Do, 29.09. 7:30 8(1800m)
Ortszeit Luftdruck NN (hPa) Tendenz (hPa in 3 Std.)
Do, 29.09. 8:00 1003 + 0,7
Do, 29.09. 2:00 1001 + 0,8
Mi, 28.09. 20:00 999 + 1,8
Mi, 28.09. 14:00 996 + 0,3
Mi, 28.09. 8:00 996 - 1,6
Mi, 28.09. 2:00 999 - 0,1
Di, 27.09. 20:00 999 + 1,2
Di, 27.09. 14:00 997 + 1,0
Ortszeit Luftdruck NN (hPa) Tendenz (hPa in 3 Std.)
Do, 29.09. 10:30 1003 + 0,7
Do, 29.09. 10:20 1003 keine Meldung
Do, 29.09. 10:10 1003 keine Meldung
Do, 29.09. 10:00 1003 + 0,7
Do, 29.09. 9:50 1003 keine Meldung
Do, 29.09. 9:40 1003 keine Meldung
Do, 29.09. 9:30 1003 + 0,6
Do, 29.09. 9:00 1003 + 0,7
Do, 29.09. 8:30 1003 + 0,8
Do, 29.09. 8:00 1003 + 0,7
Do, 29.09. 7:30 1003 + 0,7
Ortszeit Schneehöhe (cm)
Do, 29.09. 8:00 0
Do, 29.09. 2:00 0
Mi, 28.09. 20:00 0
Mi, 28.09. 14:00 0
Mi, 28.09. 8:00 0
Mi, 28.09. 2:00 0
Di, 27.09. 20:00 0
Di, 27.09. 14:00 0
Ortszeit Schneehöhe (cm)
Do, 29.09. 10:30 0
Do, 29.09. 10:20 0
Do, 29.09. 10:10 0
Do, 29.09. 10:00 0
Do, 29.09. 9:50 0
Do, 29.09. 9:40 0
Do, 29.09. 9:30 0
Do, 29.09. 9:00 0
Do, 29.09. 8:30 0
Do, 29.09. 8:00 0
Do, 29.09. 7:30 0
Link zu dieser Seite / Seite empfehlen

Das Wetter in ...